createdAt,value
2019-03-20T00:01:43.957Z,2.20
2019-03-20T00:04:12.443Z,2.20
2019-03-20T00:06:40.726Z,2.20
2019-03-20T00:09:09.070Z,2.20
2019-03-20T00:11:37.454Z,2.20
2019-03-20T00:14:08.144Z,2.20
2019-03-20T00:16:36.538Z,2.20
2019-03-20T00:19:04.853Z,2.20
2019-03-20T00:21:33.098Z,2.20
2019-03-20T00:24:01.413Z,2.20
2019-03-20T00:26:30.790Z,2.20
2019-03-20T00:28:59.083Z,2.20
2019-03-20T00:31:27.383Z,2.20
2019-03-20T00:33:55.635Z,2.20
2019-03-20T00:36:24.084Z,2.10
2019-03-20T00:38:52.396Z,2.10
2019-03-20T00:41:20.830Z,2.10
2019-03-20T00:43:49.086Z,2.10
2019-03-20T00:46:17.467Z,2.10
2019-03-20T00:48:45.752Z,2.10
2019-03-20T00:51:14.082Z,2.10
2019-03-20T00:53:43.139Z,2.10
2019-03-20T00:56:11.458Z,2.10
2019-03-20T00:58:40.334Z,2.10
2019-03-20T01:01:08.957Z,2.10
2019-03-20T01:03:37.272Z,2.10
2019-03-20T01:06:07.335Z,2.10
2019-03-20T01:08:36.190Z,2.10
2019-03-20T01:11:04.600Z,2.00
2019-03-20T01:13:32.871Z,2.00
2019-03-20T01:16:01.213Z,2.00
2019-03-20T01:18:30.755Z,2.00
2019-03-20T01:21:00.589Z,1.90
2019-03-20T01:23:28.970Z,1.90
2019-03-20T01:25:57.282Z,1.90
2019-03-20T01:28:25.601Z,1.90
2019-03-20T01:30:53.887Z,1.90
2019-03-20T01:33:22.258Z,1.90
2019-03-20T01:35:50.892Z,1.80
2019-03-20T01:38:19.292Z,1.80
2019-03-20T01:40:48.031Z,1.80
2019-03-20T01:43:16.422Z,1.80
2019-03-20T01:45:44.717Z,1.70
2019-03-20T01:48:13.049Z,1.70
2019-03-20T01:50:41.322Z,1.70
2019-03-20T01:53:09.741Z,1.70
2019-03-20T01:55:38.147Z,1.70
2019-03-20T01:58:06.454Z,1.70
2019-03-20T02:00:35.163Z,1.60
2019-03-20T02:03:03.442Z,1.60
2019-03-20T02:05:36.222Z,1.60
2019-03-20T02:08:01.802Z,1.60
2019-03-20T02:10:30.082Z,1.60
2019-03-20T02:12:58.830Z,1.60
2019-03-20T02:15:37.912Z,1.60
2019-03-20T02:17:57.838Z,1.60
2019-03-20T02:20:27.913Z,1.60
2019-03-20T02:22:56.294Z,1.60
2019-03-20T02:25:24.578Z,1.60
2019-03-20T02:27:52.859Z,1.50
2019-03-20T02:30:21.147Z,1.50
2019-03-20T02:32:50.539Z,1.50
2019-03-20T02:35:18.811Z,1.50
2019-03-20T02:37:47.682Z,1.50
2019-03-20T02:40:15.988Z,1.50
2019-03-20T02:42:44.317Z,1.50
2019-03-20T02:45:13.306Z,1.50
2019-03-20T02:47:41.603Z,1.60
2019-03-20T02:50:09.972Z,1.50
2019-03-20T02:52:38.274Z,1.50
2019-03-20T02:55:07.045Z,1.50
2019-03-20T02:57:35.329Z,1.40
2019-03-20T03:00:04.203Z,1.40
2019-03-20T03:02:32.647Z,1.40
2019-03-20T03:05:00.918Z,1.40
2019-03-20T03:07:29.204Z,1.40
2019-03-20T03:10:01.103Z,1.40
2019-03-20T03:12:29.465Z,1.40
2019-03-20T03:14:57.868Z,1.50
2019-03-20T03:17:26.135Z,1.50
2019-03-20T03:19:54.525Z,1.40
2019-03-20T03:22:22.833Z,1.30
2019-03-20T03:24:51.488Z,1.30
2019-03-20T03:27:20.802Z,1.30
2019-03-20T03:29:49.210Z,1.30
2019-03-20T03:32:17.754Z,1.40
2019-03-20T03:34:46.458Z,1.40
2019-03-20T03:37:14.899Z,1.30
2019-03-20T03:39:43.162Z,1.30
2019-03-20T03:42:11.447Z,1.20
2019-03-20T03:44:39.759Z,1.20
2019-03-20T03:47:08.015Z,1.20
2019-03-20T03:49:36.604Z,1.20
2019-03-20T03:52:05.290Z,1.20
2019-03-20T03:54:33.612Z,1.30
2019-03-20T03:57:02.057Z,1.30
2019-03-20T03:59:31.695Z,1.30
2019-03-20T04:01:59.954Z,1.30
2019-03-20T04:04:28.278Z,1.20
2019-03-20T04:06:56.536Z,1.20
2019-03-20T04:09:24.838Z,1.30
2019-03-20T04:11:53.110Z,1.30
2019-03-20T04:14:21.431Z,1.20
2019-03-20T04:16:49.795Z,1.20
2019-03-20T04:19:18.236Z,1.20
2019-03-20T04:21:48.156Z,1.20
2019-03-20T04:24:16.616Z,1.20
2019-03-20T04:26:44.889Z,1.20
2019-03-20T04:29:13.168Z,1.20
2019-03-20T04:31:41.439Z,1.20
2019-03-20T04:34:09.798Z,1.20
2019-03-20T04:36:47.216Z,1.20
2019-03-20T04:39:08.113Z,1.20
2019-03-20T04:41:36.450Z,1.20
2019-03-20T04:44:04.703Z,1.10
2019-03-20T04:46:33.034Z,1.10
2019-03-20T04:49:01.438Z,1.10
2019-03-20T04:51:29.711Z,1.10
2019-03-20T04:54:00.230Z,1.10
2019-03-20T04:56:28.557Z,1.00
2019-03-20T04:58:56.874Z,1.10
2019-03-20T05:01:25.250Z,1.10
2019-03-20T05:03:53.516Z,1.10
2019-03-20T05:06:21.818Z,1.10
2019-03-20T05:08:50.106Z,1.10
2019-03-20T05:11:18.462Z,1.10
2019-03-20T05:13:46.780Z,1.10
2019-03-20T05:16:15.074Z,1.10
2019-03-20T05:18:43.351Z,1.00
2019-03-20T05:21:11.750Z,1.00
2019-03-20T05:23:40.037Z,1.00
2019-03-20T05:26:08.307Z,0.90
2019-03-20T05:28:36.590Z,0.90
2019-03-20T05:31:05.006Z,0.90
2019-03-20T05:33:34.258Z,1.00
2019-03-20T05:36:02.731Z,0.90
2019-03-20T05:38:31.116Z,1.00
2019-03-20T05:40:59.521Z,1.00
2019-03-20T05:43:27.845Z,1.10
2019-03-20T05:45:56.142Z,1.10
2019-03-20T05:48:24.437Z,1.00
2019-03-20T05:50:55.934Z,1.10
2019-03-20T05:53:24.260Z,1.10
2019-03-20T05:55:52.550Z,1.10
2019-03-20T05:58:20.990Z,1.20
2019-03-20T06:00:49.306Z,1.20
2019-03-20T06:03:18.827Z,1.20
2019-03-20T06:05:47.204Z,1.20
2019-03-20T06:08:15.539Z,1.20
2019-03-20T06:10:43.810Z,1.30
2019-03-20T06:13:12.127Z,1.30
2019-03-20T06:15:40.449Z,1.30
2019-03-20T06:18:08.745Z,1.30
2019-03-20T06:20:37.097Z,1.30
2019-03-20T06:23:05.456Z,1.40
2019-03-20T06:25:33.768Z,1.50
2019-03-20T06:28:02.139Z,1.50
2019-03-20T06:30:30.474Z,1.60
2019-03-20T06:32:59.844Z,1.60
2019-03-20T06:35:28.308Z,1.70
2019-03-20T06:37:56.598Z,1.70
2019-03-20T06:40:24.871Z,1.80
2019-03-20T06:42:55.274Z,1.80
2019-03-20T06:45:23.355Z,1.80
2019-03-20T06:47:54.140Z,1.90
2019-03-20T06:50:22.497Z,1.90
2019-03-20T06:52:50.841Z,1.90
2019-03-20T06:55:19.184Z,2.00
2019-03-20T06:57:47.666Z,2.10
2019-03-20T07:00:37.935Z,2.10
2019-03-20T07:03:07.909Z,2.20
2019-03-20T07:05:54.163Z,2.30
2019-03-20T07:08:26.447Z,2.40
2019-03-20T07:11:07.736Z,2.40
2019-03-20T07:13:36.070Z,2.50
2019-03-20T07:16:04.434Z,2.50
2019-03-20T07:18:32.876Z,2.60
2019-03-20T07:21:01.144Z,2.70
2019-03-20T07:23:29.481Z,2.80
2019-03-20T07:25:57.739Z,2.80
2019-03-20T07:28:26.072Z,2.90
2019-03-20T07:30:54.394Z,3.00
2019-03-20T07:33:22.811Z,3.10
2019-03-20T07:35:51.075Z,3.20
2019-03-20T07:38:19.486Z,3.30
2019-03-20T07:40:47.824Z,3.50
2019-03-20T07:43:16.154Z,3.70
2019-03-20T07:45:44.427Z,3.80
2019-03-20T07:48:21.593Z,4.00
2019-03-20T07:50:42.875Z,4.10
2019-03-20T07:53:11.247Z,4.10
2019-03-20T07:55:39.514Z,4.10
2019-03-20T07:58:07.821Z,4.10
2019-03-20T08:00:36.174Z,4.20
2019-03-20T08:03:04.456Z,4.30
2019-03-20T08:05:32.772Z,4.50
2019-03-20T08:08:07.181Z,4.60
2019-03-20T08:10:31.259Z,4.70
2019-03-20T08:12:59.543Z,4.80
2019-03-20T08:15:27.934Z,5.00
2019-03-20T08:17:56.200Z,5.10
2019-03-20T08:20:24.546Z,5.30
2019-03-20T08:22:52.921Z,5.50
2019-03-20T08:25:21.238Z,5.70
2019-03-20T08:27:49.755Z,5.80
2019-03-20T08:30:18.082Z,6.10
2019-03-20T08:32:46.355Z,6.30
2019-03-20T08:35:14.722Z,6.40
2019-03-20T08:37:42.984Z,6.60
2019-03-20T08:40:11.589Z,6.80
2019-03-20T08:42:39.900Z,7.20
2019-03-20T08:45:08.969Z,7.40
2019-03-20T08:47:37.246Z,7.70
2019-03-20T08:50:06.067Z,8.00
2019-03-20T08:52:34.448Z,8.20
2019-03-20T08:55:02.766Z,8.50
2019-03-20T08:57:31.120Z,8.80
2019-03-20T08:59:59.470Z,9.00
2019-03-20T09:02:27.824Z,9.20
2019-03-20T09:04:56.265Z,9.40
2019-03-20T09:07:24.742Z,9.50
2019-03-20T09:09:53.053Z,9.60
2019-03-20T09:12:21.335Z,9.90
2019-03-20T09:14:49.669Z,10.00
2019-03-20T09:17:18.092Z,10.20
2019-03-20T09:19:46.430Z,10.30
2019-03-20T09:22:14.750Z,10.40
2019-03-20T09:24:43.072Z,10.40
2019-03-20T09:27:11.387Z,10.30
2019-03-20T09:29:41.219Z,10.40
2019-03-20T09:32:10.090Z,10.60
2019-03-20T09:34:38.434Z,10.60
2019-03-20T09:37:06.729Z,10.70
2019-03-20T09:39:35.091Z,10.80
2019-03-20T09:42:03.420Z,10.60
2019-03-20T09:44:31.718Z,10.70
2019-03-20T09:47:00.131Z,11.00
2019-03-20T09:49:28.787Z,11.20
2019-03-20T09:51:57.096Z,11.30
2019-03-20T09:54:25.391Z,11.60
2019-03-20T09:56:53.725Z,11.70
2019-03-20T09:59:21.994Z,11.90
2019-03-20T10:01:50.371Z,12.00
2019-03-20T10:04:27.526Z,11.80
2019-03-20T10:06:55.865Z,11.90
2019-03-20T10:09:24.278Z,12.00
2019-03-20T10:11:52.587Z,11.80
2019-03-20T10:14:20.854Z,11.40
2019-03-20T10:16:49.177Z,11.40
2019-03-20T10:19:17.510Z,11.20
2019-03-20T10:21:45.798Z,11.00
2019-03-20T10:24:14.181Z,10.90
2019-03-20T10:26:42.658Z,10.90
2019-03-20T10:29:11.024Z,11.00
2019-03-20T10:31:39.311Z,10.80
2019-03-20T10:34:07.693Z,10.80
2019-03-20T10:36:36.035Z,11.00
2019-03-20T10:39:06.837Z,11.10
2019-03-20T10:41:35.320Z,11.30
2019-03-20T10:44:03.666Z,11.40
2019-03-20T10:47:15.757Z,11.50
2019-03-20T10:49:44.097Z,11.70
2019-03-20T10:52:12.392Z,12.00
2019-03-20T10:54:40.767Z,12.20
2019-03-20T10:57:09.041Z,12.40
2019-03-20T10:59:37.371Z,12.60
2019-03-20T11:02:05.714Z,12.80
2019-03-20T11:04:34.026Z,12.80
2019-03-20T11:07:02.343Z,12.70
2019-03-20T11:09:30.735Z,12.80
2019-03-20T11:11:59.329Z,12.90
2019-03-20T11:14:27.615Z,12.90
2019-03-20T11:16:56.023Z,12.70
2019-03-20T11:19:24.347Z,12.60
2019-03-20T11:21:52.828Z,12.70
2019-03-20T11:24:21.244Z,12.90
2019-03-20T11:26:49.566Z,12.70
2019-03-20T11:29:21.501Z,12.70
2019-03-20T11:31:48.026Z,12.70
2019-03-20T11:34:16.374Z,12.90
2019-03-20T11:36:44.668Z,12.80
2019-03-20T11:39:13.517Z,12.70
2019-03-20T11:41:41.836Z,12.70
2019-03-20T11:44:10.199Z,12.70
2019-03-20T11:46:38.501Z,12.80
2019-03-20T11:49:06.865Z,12.90
2019-03-20T11:51:35.254Z,12.90
2019-03-20T11:54:03.593Z,13.00
2019-03-20T11:56:31.983Z,12.70
2019-03-20T11:59:00.262Z,12.60
2019-03-20T12:01:28.590Z,12.40
2019-03-20T12:03:56.945Z,12.60
2019-03-20T12:06:25.344Z,12.80
2019-03-20T12:08:53.675Z,12.90
2019-03-20T12:11:22.175Z,12.80
2019-03-20T12:13:50.517Z,12.80
2019-03-20T12:16:18.857Z,12.60
2019-03-20T12:18:47.178Z,12.70
2019-03-20T12:21:15.513Z,12.90
2019-03-20T12:23:43.866Z,12.80
2019-03-20T12:26:12.338Z,12.90
2019-03-20T12:28:40.669Z,12.90
2019-03-20T12:31:09.294Z,13.00
2019-03-20T12:33:37.644Z,13.00
2019-03-20T12:36:05.950Z,13.20
2019-03-20T12:38:34.335Z,13.30
2019-03-20T12:41:03.020Z,13.40
2019-03-20T12:43:31.344Z,13.50
2019-03-20T12:45:59.891Z,13.50
2019-03-20T12:48:28.249Z,13.40
2019-03-20T12:50:56.574Z,13.50
2019-03-20T12:53:26.950Z,13.30
2019-03-20T12:55:55.361Z,13.30
2019-03-20T12:58:23.803Z,13.20
2019-03-20T13:00:54.438Z,13.20
2019-03-20T13:03:22.231Z,12.70
2019-03-20T13:05:50.552Z,12.70
2019-03-20T13:08:18.883Z,12.60
2019-03-20T13:10:47.225Z,12.60
2019-03-20T13:13:15.706Z,12.60
2019-03-20T13:15:44.224Z,12.60
2019-03-20T13:18:12.741Z,12.70
2019-03-20T13:20:41.220Z,12.70
2019-03-20T13:23:10.421Z,12.80
2019-03-20T13:25:38.703Z,12.60
2019-03-20T13:28:07.010Z,12.70
2019-03-20T13:30:42.905Z,12.70
2019-03-20T13:33:11.245Z,12.80
2019-03-20T13:35:39.690Z,12.90
2019-03-20T13:38:08.105Z,13.00
2019-03-20T13:40:36.562Z,12.70
2019-03-20T13:43:04.971Z,12.80
2019-03-20T13:45:33.361Z,12.70
2019-03-20T13:48:01.677Z,12.70
2019-03-20T13:50:30.034Z,12.70
2019-03-20T13:52:58.520Z,12.80
2019-03-20T13:55:26.817Z,12.80
2019-03-20T13:57:55.206Z,12.80
2019-03-20T14:00:23.647Z,12.90
2019-03-20T14:02:52.238Z,13.00
2019-03-20T14:05:20.643Z,13.10
2019-03-20T14:07:49.316Z,12.90
2019-03-20T14:10:25.191Z,12.90
2019-03-20T14:12:48.440Z,13.00
2019-03-20T14:15:16.993Z,12.90
2019-03-20T14:17:45.388Z,12.90
2019-03-20T14:20:14.853Z,12.90
2019-03-20T14:22:43.190Z,13.10
2019-03-20T14:25:11.535Z,13.00
2019-03-20T14:27:39.890Z,12.90
2019-03-20T14:30:10.979Z,12.80
2019-03-20T14:32:39.353Z,12.90
2019-03-20T14:35:08.242Z,12.90
2019-03-20T14:37:36.816Z,12.80
2019-03-20T14:40:05.462Z,12.90
2019-03-20T14:42:33.868Z,13.00
2019-03-20T14:45:02.307Z,13.00
2019-03-20T14:47:30.829Z,13.10
2019-03-20T14:49:59.243Z,13.20
2019-03-20T14:52:27.750Z,13.20
2019-03-20T14:54:56.079Z,12.80
2019-03-20T14:57:27.233Z,12.90
2019-03-20T14:59:55.911Z,12.90
2019-03-20T15:02:24.283Z,12.70
2019-03-20T15:04:52.708Z,12.60
2019-03-20T15:07:21.056Z,12.60
2019-03-20T15:09:49.502Z,12.40
2019-03-20T15:12:17.894Z,12.30
2019-03-20T15:14:46.292Z,12.30
2019-03-20T15:17:14.867Z,12.40
2019-03-20T15:19:43.254Z,12.50
2019-03-20T15:22:11.613Z,12.70
2019-03-20T15:24:40.158Z,12.80
2019-03-20T15:27:08.586Z,12.90
2019-03-20T15:29:36.930Z,13.00
2019-03-20T15:32:05.208Z,13.20
2019-03-20T15:34:33.597Z,13.20
2019-03-20T15:37:02.004Z,13.00
2019-03-20T15:39:30.528Z,13.00
2019-03-20T15:41:59.623Z,13.10
2019-03-20T15:44:28.034Z,13.00
2019-03-20T15:46:56.384Z,12.90
2019-03-20T15:49:24.859Z,12.90
2019-03-20T15:51:53.206Z,12.70
2019-03-20T15:54:21.505Z,12.70
2019-03-20T15:56:49.892Z,12.50
2019-03-20T15:59:18.298Z,12.60
2019-03-20T16:01:46.803Z,12.50
2019-03-20T16:04:15.248Z,12.60
2019-03-20T16:06:43.793Z,12.60
2019-03-20T16:09:12.271Z,12.60
2019-03-20T16:11:40.656Z,12.60
2019-03-20T16:14:09.094Z,12.60
2019-03-20T16:16:37.449Z,12.60
2019-03-20T16:19:05.900Z,12.60
2019-03-20T16:21:34.268Z,12.70
2019-03-20T16:24:02.840Z,12.80
2019-03-20T16:26:31.311Z,12.80
2019-03-20T16:28:59.912Z,12.70
2019-03-20T16:31:28.329Z,12.70
2019-03-20T16:33:57.031Z,12.70
2019-03-20T16:36:25.490Z,12.70
2019-03-20T16:38:54.121Z,12.70
2019-03-20T16:41:22.485Z,12.70
2019-03-20T16:43:50.934Z,12.70
2019-03-20T16:46:19.234Z,12.70
2019-03-20T16:48:47.727Z,12.50
2019-03-20T16:51:16.147Z,12.40
2019-03-20T16:53:44.590Z,12.30
2019-03-20T16:56:12.912Z,12.20
2019-03-20T16:58:41.304Z,12.10
2019-03-20T17:01:09.684Z,12.10
2019-03-20T17:03:38.085Z,12.10
2019-03-20T17:06:06.471Z,12.10
2019-03-20T17:08:34.922Z,12.00
2019-03-20T17:11:03.352Z,12.00
2019-03-20T17:13:31.816Z,11.90
2019-03-20T17:16:00.291Z,12.00
2019-03-20T17:18:28.733Z,12.00
2019-03-20T17:20:58.032Z,12.00
2019-03-20T17:23:26.620Z,12.00
2019-03-20T17:25:54.994Z,12.10
2019-03-20T17:28:24.375Z,12.10
2019-03-20T17:30:52.861Z,12.10
2019-03-20T17:33:21.382Z,12.20
2019-03-20T17:35:49.716Z,12.20
2019-03-20T17:38:18.679Z,12.00
2019-03-20T17:40:47.196Z,12.00
2019-03-20T17:43:15.681Z,12.10
2019-03-20T17:45:44.136Z,12.00
2019-03-20T17:48:12.587Z,12.00
2019-03-20T17:50:41.002Z,11.90
2019-03-20T17:53:09.550Z,11.90
2019-03-20T17:55:38.002Z,11.80
2019-03-20T17:58:06.538Z,11.80
2019-03-20T18:00:39.655Z,11.70
2019-03-20T18:03:08.216Z,11.60
2019-03-20T18:05:37.048Z,11.60
2019-03-20T18:08:05.755Z,11.50
2019-03-20T18:10:34.330Z,11.40
2019-03-20T18:13:02.778Z,11.30
2019-03-20T18:15:31.190Z,11.30
2019-03-20T18:17:59.634Z,11.10
2019-03-20T18:20:28.066Z,11.00
2019-03-20T18:22:56.459Z,11.00
2019-03-20T18:25:24.960Z,10.80
2019-03-20T18:27:53.452Z,10.80
2019-03-20T18:30:22.494Z,10.80
2019-03-20T18:32:51.014Z,10.70
2019-03-20T18:35:19.747Z,10.70
2019-03-20T18:37:48.218Z,10.60
2019-03-20T18:40:17.236Z,10.60
2019-03-20T18:42:48.494Z,10.60
2019-03-20T18:45:19.152Z,10.50
2019-03-20T18:47:48.434Z,10.40
2019-03-20T18:50:18.268Z,10.30
2019-03-20T18:52:48.594Z,10.20
2019-03-20T18:55:18.064Z,10.00
2019-03-20T18:57:46.557Z,9.70
2019-03-20T19:00:16.337Z,9.50
2019-03-20T19:02:44.745Z,9.30
2019-03-20T19:05:14.938Z,9.30
2019-03-20T19:07:43.549Z,9.20
2019-03-20T19:10:12.764Z,9.10
2019-03-20T19:12:43.456Z,9.10
2019-03-20T19:15:12.106Z,9.20
2019-03-20T19:17:40.631Z,9.20
2019-03-20T19:20:10.248Z,9.10
2019-03-20T19:22:41.061Z,9.10
2019-03-20T19:25:10.547Z,9.10
2019-03-20T19:27:39.279Z,9.00
2019-03-20T19:30:10.431Z,8.90
2019-03-20T19:32:39.231Z,8.70
2019-03-20T19:35:07.907Z,8.60
2019-03-20T19:37:36.648Z,8.50
2019-03-20T19:40:05.746Z,8.40
2019-03-20T19:42:35.148Z,8.40
2019-03-20T19:45:04.601Z,8.40
2019-03-20T19:47:33.572Z,8.40
2019-03-20T19:50:02.654Z,8.40
2019-03-20T19:52:31.549Z,8.30
2019-03-20T19:55:00.522Z,8.30
2019-03-20T19:57:28.979Z,8.40
2019-03-20T19:59:58.661Z,8.50
2019-03-20T20:02:28.160Z,8.50
2019-03-20T20:04:56.578Z,8.60
2019-03-20T20:07:25.462Z,8.50
2019-03-20T20:09:53.934Z,8.50
2019-03-20T20:12:30.895Z,8.30
2019-03-20T20:14:52.890Z,8.20
2019-03-20T20:17:21.766Z,8.20
2019-03-20T20:19:50.382Z,8.20
2019-03-20T20:22:18.916Z,8.20
2019-03-20T20:24:48.673Z,8.10
2019-03-20T20:27:17.712Z,8.10
2019-03-20T20:29:46.227Z,8.00
2019-03-20T20:32:14.819Z,8.00
2019-03-20T20:34:43.215Z,7.90
2019-03-20T20:37:12.252Z,7.70
2019-03-20T20:39:41.031Z,7.60
2019-03-20T20:42:09.692Z,7.60
2019-03-20T20:44:38.095Z,7.60
2019-03-20T20:47:06.651Z,7.50
2019-03-20T20:49:35.024Z,7.40
2019-03-20T20:52:04.307Z,7.30
2019-03-20T20:54:32.740Z,7.30
2019-03-20T20:57:01.279Z,7.20
2019-03-20T20:59:29.843Z,7.20
2019-03-20T21:01:58.385Z,7.10
2019-03-20T21:04:26.942Z,7.10
2019-03-20T21:06:55.373Z,7.00
2019-03-20T21:09:23.788Z,6.90
2019-03-20T21:11:52.257Z,6.90
2019-03-20T21:14:20.788Z,6.90
2019-03-20T21:16:49.523Z,6.90
2019-03-20T21:19:34.002Z,6.80
2019-03-20T21:22:22.222Z,6.90
2019-03-20T21:24:51.007Z,6.80
2019-03-20T21:27:41.752Z,6.90
2019-03-20T21:30:35.349Z,6.80
2019-03-20T21:33:04.491Z,6.70
2019-03-20T21:35:44.053Z,6.60
2019-03-20T21:38:13.103Z,6.50
2019-03-20T21:41:03.385Z,6.40
2019-03-20T21:43:50.922Z,6.30
2019-03-20T21:46:33.134Z,6.10
2019-03-20T21:49:01.962Z,6.10
2019-03-20T21:51:30.597Z,6.10
2019-03-20T21:54:18.120Z,6.00
2019-03-20T21:56:53.371Z,6.00
2019-03-20T21:59:30.570Z,6.00
2019-03-20T22:02:21.167Z,5.90
2019-03-20T22:04:50.121Z,5.90
2019-03-20T22:07:18.929Z,5.80
2019-03-20T22:10:16.355Z,5.90
2019-03-20T22:13:17.835Z,5.90
2019-03-20T22:15:53.505Z,5.80
2019-03-20T22:18:32.603Z,5.80
2019-03-20T22:21:04.618Z,5.80
2019-03-20T22:23:52.014Z,5.70
2019-03-20T22:26:38.355Z,5.70
2019-03-20T22:29:22.778Z,5.60
2019-03-20T22:32:00.331Z,5.60
2019-03-20T22:34:34.852Z,5.60
2019-03-20T22:37:03.475Z,5.50
2019-03-20T22:39:56.808Z,5.40
2019-03-20T22:42:34.331Z,5.30
2019-03-20T22:45:05.509Z,5.30
2019-03-20T22:47:51.722Z,5.20
2019-03-20T22:50:37.173Z,5.20
2019-03-20T22:53:23.176Z,5.20
2019-03-20T22:56:20.893Z,5.30
2019-03-20T22:58:49.840Z,5.30
2019-03-20T23:01:20.674Z,5.20
2019-03-20T23:03:51.598Z,5.10
2019-03-20T23:06:20.250Z,5.00
2019-03-20T23:08:48.895Z,5.10
2019-03-20T23:11:17.557Z,5.10
2019-03-20T23:13:46.358Z,5.10
2019-03-20T23:16:16.215Z,5.00
2019-03-20T23:18:44.915Z,4.90
2019-03-20T23:21:13.527Z,5.00
2019-03-20T23:23:42.360Z,4.90
2019-03-20T23:26:11.065Z,4.90
2019-03-20T23:28:39.895Z,4.90
2019-03-20T23:31:08.584Z,4.80
2019-03-20T23:33:37.173Z,4.80
2019-03-20T23:36:05.769Z,4.70
2019-03-20T23:38:34.443Z,4.70
2019-03-20T23:41:03.125Z,4.80
2019-03-20T23:43:31.740Z,4.80
2019-03-20T23:46:00.418Z,4.80
2019-03-20T23:48:47.827Z,4.60
2019-03-20T23:51:17.372Z,4.60
2019-03-20T23:53:47.497Z,4.60
2019-03-20T23:56:16.120Z,4.60
2019-03-20T23:58:44.761Z,4.50
